createdAt,value
2023-04-21T00:00:11.364Z,100.00
2023-04-21T00:02:41.367Z,100.00
2023-04-21T00:05:12.798Z,100.00
2023-04-21T00:07:41.899Z,100.00
2023-04-21T00:10:13.508Z,100.00
2023-04-21T00:12:42.406Z,100.00
2023-04-21T00:15:12.795Z,100.00
2023-04-21T00:17:41.648Z,100.00
2023-04-21T00:20:11.631Z,100.00
2023-04-21T00:22:39.970Z,100.00
2023-04-21T00:25:09.605Z,100.00
2023-04-21T00:27:40.064Z,100.00
2023-04-21T00:30:10.219Z,100.00
2023-04-21T00:32:39.297Z,100.00
2023-04-21T00:35:08.794Z,100.00
2023-04-21T00:37:37.188Z,100.00
2023-04-21T00:40:07.212Z,100.00
2023-04-21T00:42:36.003Z,100.00
2023-04-21T00:45:06.883Z,100.00
2023-04-21T00:47:35.691Z,100.00
2023-04-21T00:50:05.158Z,100.00
2023-04-21T00:52:34.850Z,100.00
2023-04-21T00:55:05.658Z,100.00
2023-04-21T00:57:35.496Z,100.00
2023-04-21T01:00:07.909Z,100.00
2023-04-21T01:02:38.548Z,100.00
2023-04-21T01:05:09.321Z,100.00
2023-04-21T01:07:40.480Z,100.00
2023-04-21T01:10:10.261Z,100.00
2023-04-21T01:12:45.312Z,100.00
2023-04-21T01:15:18.364Z,100.00
2023-04-21T01:17:47.041Z,100.00
2023-04-21T01:20:16.638Z,100.00
2023-04-21T01:22:46.982Z,100.00
2023-04-21T01:25:17.656Z,100.00
2023-04-21T01:27:46.628Z,100.00
2023-04-21T01:30:16.561Z,100.00
2023-04-21T01:32:45.342Z,100.00
2023-04-21T01:35:14.033Z,100.00
2023-04-21T01:37:42.783Z,100.00
2023-04-21T01:40:14.139Z,100.00
2023-04-21T01:42:44.576Z,100.00
2023-04-21T01:45:13.980Z,100.00
2023-04-21T01:47:43.041Z,100.00
2023-04-21T01:50:11.909Z,100.00
2023-04-21T01:52:40.613Z,100.00
2023-04-21T01:55:10.483Z,100.00
2023-04-21T01:57:40.475Z,100.00
2023-04-21T02:00:10.617Z,100.00
2023-04-21T02:02:46.535Z,100.00
2023-04-21T02:05:15.640Z,100.00
2023-04-21T02:07:44.231Z,100.00
2023-04-21T02:10:12.736Z,100.00
2023-04-21T02:12:42.453Z,100.00
2023-04-21T02:15:12.829Z,100.00
2023-04-21T02:17:42.850Z,100.00
2023-04-21T02:20:13.216Z,100.00
2023-04-21T02:22:41.979Z,100.00
2023-04-21T02:25:11.087Z,100.00
2023-04-21T02:27:42.205Z,100.00
2023-04-21T02:30:11.973Z,100.00
2023-04-21T02:32:40.877Z,100.00
2023-04-21T02:35:10.345Z,100.00
2023-04-21T02:37:38.940Z,100.00
2023-04-21T02:40:09.374Z,100.00
2023-04-21T02:42:38.093Z,100.00
2023-04-21T02:45:09.917Z,100.00
2023-04-21T02:47:38.568Z,100.00
2023-04-21T02:50:08.045Z,100.00
2023-04-21T02:52:38.273Z,100.00
2023-04-21T02:55:07.691Z,100.00
2023-04-21T02:57:36.285Z,100.00
2023-04-21T03:00:07.455Z,100.00
2023-04-21T03:02:37.568Z,100.00
2023-04-21T03:05:06.662Z,100.00
2023-04-21T03:07:35.814Z,100.00
2023-04-21T03:10:07.260Z,100.00
2023-04-21T03:12:35.845Z,100.00
2023-04-21T03:15:06.153Z,100.00
2023-04-21T03:17:38.092Z,100.00
2023-04-21T03:20:08.590Z,100.00
2023-04-21T03:22:37.352Z,100.00
2023-04-21T03:25:07.677Z,100.00
2023-04-21T03:27:36.383Z,100.00
2023-04-21T03:30:06.752Z,100.00
2023-04-21T03:32:37.215Z,100.00
2023-04-21T03:35:06.350Z,100.00
2023-04-21T03:37:36.143Z,100.00
2023-04-21T03:40:08.641Z,100.00
2023-04-21T03:42:37.652Z,100.00
2023-04-21T03:45:08.469Z,100.00
2023-04-21T03:47:38.709Z,100.00
2023-04-21T03:50:08.669Z,100.00
2023-04-21T03:52:37.152Z,100.00
2023-04-21T03:55:08.936Z,100.00
2023-04-21T03:57:37.240Z,100.00
2023-04-21T04:00:07.072Z,100.00
2023-04-21T04:02:42.830Z,100.00
2023-04-21T04:05:11.332Z,100.00
2023-04-21T04:07:39.972Z,100.00
2023-04-21T04:10:08.811Z,100.00
2023-04-21T04:12:37.629Z,100.00
2023-04-21T04:15:08.503Z,100.00
2023-04-21T04:17:36.830Z,100.00
2023-04-21T04:20:08.797Z,100.00
2023-04-21T04:22:37.549Z,100.00
2023-04-21T04:25:07.111Z,100.00
2023-04-21T04:27:35.755Z,100.00
2023-04-21T04:30:04.609Z,100.00
2023-04-21T04:32:34.103Z,100.00
2023-04-21T04:35:02.816Z,100.00
2023-04-21T04:37:34.446Z,100.00
2023-04-21T04:40:05.590Z,100.00
2023-04-21T04:42:34.781Z,100.00
2023-04-21T04:45:03.861Z,100.00
2023-04-21T04:47:32.560Z,100.00
2023-04-21T04:50:01.407Z,100.00
2023-04-21T04:52:30.086Z,100.00
2023-04-21T04:55:00.199Z,100.00
2023-04-21T04:57:28.533Z,100.00
2023-04-21T04:59:58.550Z,100.00
2023-04-21T05:02:27.349Z,100.00
2023-04-21T05:04:56.161Z,100.00
2023-04-21T05:07:25.101Z,100.00
2023-04-21T05:09:54.532Z,100.00
2023-04-21T05:12:24.158Z,100.00
2023-04-21T05:14:52.737Z,100.00
2023-04-21T05:17:21.340Z,100.00
2023-04-21T05:19:49.908Z,100.00
2023-04-21T05:22:18.585Z,100.00
2023-04-21T05:24:46.813Z,100.00
2023-04-21T05:27:15.727Z,100.00
2023-04-21T05:29:45.763Z,100.00
2023-04-21T05:32:14.573Z,100.00
2023-04-21T05:34:43.247Z,100.00
2023-04-21T05:37:12.902Z,100.00
2023-04-21T05:39:41.509Z,100.00
2023-04-21T05:42:11.904Z,100.00
2023-04-21T05:44:41.082Z,100.00
2023-04-21T05:47:11.133Z,100.00
2023-04-21T05:49:39.694Z,100.00
2023-04-21T05:52:11.469Z,100.00
2023-04-21T05:54:40.805Z,100.00
2023-04-21T05:57:09.682Z,100.00
2023-04-21T05:59:38.404Z,100.00
2023-04-21T06:02:07.194Z,100.00
2023-04-21T06:04:36.995Z,100.00
2023-04-21T06:07:09.753Z,100.00
2023-04-21T06:09:38.714Z,100.00
2023-04-21T06:12:07.736Z,100.00
2023-04-21T06:14:36.449Z,100.00
2023-04-21T06:17:05.257Z,100.00
2023-04-21T06:19:41.874Z,100.00
2023-04-21T06:22:10.582Z,100.00
2023-04-21T06:24:39.149Z,100.00
2023-04-21T06:27:12.836Z,100.00
2023-04-21T06:29:42.705Z,100.00
2023-04-21T06:32:11.909Z,100.00
2023-04-21T06:34:41.928Z,100.00
2023-04-21T06:37:12.277Z,100.00
2023-04-21T06:39:40.901Z,100.00
2023-04-21T06:42:10.220Z,100.00
2023-04-21T06:44:44.378Z,100.00
2023-04-21T06:47:13.074Z,100.00
2023-04-21T06:49:43.290Z,100.00
2023-04-21T06:52:12.199Z,100.00
2023-04-21T06:54:40.920Z,100.00
2023-04-21T06:57:09.496Z,100.00
2023-04-21T06:59:38.158Z,100.00
2023-04-21T07:02:06.971Z,100.00
2023-04-21T07:04:35.361Z,100.00
2023-04-21T07:07:05.001Z,100.00
2023-04-21T07:09:34.056Z,100.00
2023-04-21T07:12:03.010Z,100.00
2023-04-21T07:14:31.651Z,100.00
2023-04-21T07:17:00.436Z,100.00
2023-04-21T07:19:29.289Z,100.00
2023-04-21T07:21:58.265Z,100.00
2023-04-21T07:24:28.279Z,100.00
2023-04-21T07:26:56.912Z,100.00
2023-04-21T07:29:25.378Z,100.00
2023-04-21T07:31:54.618Z,100.00
2023-04-21T07:34:23.498Z,100.00
2023-04-21T07:36:52.894Z,100.00
2023-04-21T07:39:21.804Z,100.00
2023-04-21T07:41:51.942Z,100.00
2023-04-21T07:44:20.623Z,100.00
2023-04-21T07:46:49.245Z,100.00
2023-04-21T07:49:18.308Z,100.00
2023-04-21T07:51:46.977Z,100.00
2023-04-21T07:54:15.850Z,100.00
2023-04-21T07:56:44.542Z,100.00
2023-04-21T07:59:14.864Z,100.00
2023-04-21T08:01:43.476Z,100.00
2023-04-21T08:04:12.244Z,100.00
2023-04-21T08:06:41.434Z,100.00
2023-04-21T08:09:10.230Z,100.00
2023-04-21T08:11:38.897Z,100.00
2023-04-21T08:14:09.551Z,100.00
2023-04-21T08:16:40.431Z,100.00
2023-04-21T08:19:09.494Z,100.00
2023-04-21T08:21:38.574Z,100.00
2023-04-21T08:24:07.833Z,100.00
2023-04-21T08:26:37.805Z,90.21
2023-04-21T08:29:07.428Z,89.56
2023-04-21T08:31:36.268Z,87.79
2023-04-21T08:34:07.320Z,94.99
2023-04-21T08:36:36.038Z,96.79
2023-04-21T08:39:04.650Z,91.62
2023-04-21T08:41:33.329Z,89.27
2023-04-21T08:44:01.615Z,85.76
2023-04-21T08:46:30.355Z,82.40
2023-04-21T08:49:00.615Z,84.26
2023-04-21T08:51:31.237Z,82.98
2023-04-21T08:53:59.773Z,83.69
2023-04-21T08:56:28.931Z,84.01
2023-04-21T08:58:57.994Z,76.06
2023-04-21T09:01:26.627Z,84.57
2023-04-21T09:03:55.583Z,82.09
2023-04-21T09:06:24.300Z,81.21
2023-04-21T09:08:57.650Z,76.95
2023-04-21T09:11:26.317Z,82.62
2023-04-21T09:13:58.883Z,83.54
2023-04-21T09:16:33.658Z,78.34
2023-04-21T09:19:02.448Z,79.31
2023-04-21T09:21:32.618Z,81.93
2023-04-21T09:24:07.673Z,76.52
2023-04-21T09:26:39.030Z,73.63
2023-04-21T09:29:08.146Z,74.24
2023-04-21T09:31:37.850Z,71.87
2023-04-21T09:34:21.755Z,66.96
2023-04-21T09:36:50.533Z,67.12
2023-04-21T09:39:38.358Z,73.48
2023-04-21T09:42:12.996Z,71.32
2023-04-21T09:44:53.238Z,76.98
2023-04-21T09:47:31.218Z,69.92
2023-04-21T09:50:00.463Z,69.55
2023-04-21T09:52:31.312Z,66.35
2023-04-21T09:55:04.361Z,63.55
2023-04-21T09:57:39.207Z,70.12
2023-04-21T10:00:12.113Z,67.16
2023-04-21T10:02:49.731Z,68.03
2023-04-21T10:05:18.752Z,72.08
2023-04-21T10:07:47.971Z,73.59
2023-04-21T10:10:22.547Z,64.14
2023-04-21T10:12:52.251Z,64.34
2023-04-21T10:15:35.740Z,68.68
2023-04-21T10:18:16.316Z,62.83
2023-04-21T10:20:56.793Z,65.79
2023-04-21T10:23:38.992Z,61.79
2023-04-21T10:26:23.207Z,59.70
2023-04-21T10:28:57.665Z,67.27
2023-04-21T10:31:32.308Z,62.98
2023-04-21T10:34:22.480Z,62.10
2023-04-21T10:37:13.268Z,62.70
2023-04-21T10:39:48.332Z,62.18
2023-04-21T10:42:27.254Z,59.49
2023-04-21T10:45:07.590Z,60.43
2023-04-21T10:47:51.474Z,65.58
2023-04-21T10:50:26.206Z,62.24
2023-04-21T10:52:57.722Z,62.64
2023-04-21T10:55:29.051Z,60.65
2023-04-21T10:58:02.480Z,58.43
2023-04-21T11:00:30.973Z,58.35
2023-04-21T11:03:03.028Z,60.53
2023-04-21T11:05:38.460Z,62.23
2023-04-21T11:08:09.973Z,63.05
2023-04-21T11:10:54.870Z,61.64
2023-04-21T11:13:27.212Z,61.07
2023-04-21T11:16:00.896Z,58.49
2023-04-21T11:18:44.460Z,56.30
2023-04-21T11:21:21.650Z,64.38
2023-04-21T11:23:55.628Z,60.47
2023-04-21T11:26:34.679Z,55.81
2023-04-21T11:29:06.687Z,52.58
2023-04-21T11:31:36.770Z,56.09
2023-04-21T11:34:06.881Z,54.01
2023-04-21T11:36:35.799Z,58.85
2023-04-21T11:39:08.238Z,63.45
2023-04-21T11:41:37.259Z,57.32
2023-04-21T11:44:07.863Z,54.11
2023-04-21T11:46:37.903Z,55.11
2023-04-21T11:49:08.345Z,58.97
2023-04-21T11:51:38.801Z,56.31
2023-04-21T11:54:08.643Z,52.47
2023-04-21T11:56:38.814Z,55.62
2023-04-21T11:59:13.951Z,60.28
2023-04-21T12:01:46.143Z,55.48
2023-04-21T12:04:19.803Z,55.71
2023-04-21T12:06:58.881Z,58.08
2023-04-21T12:09:28.587Z,58.13
2023-04-21T12:11:59.717Z,56.58
2023-04-21T12:14:29.587Z,54.01
2023-04-21T12:17:00.004Z,51.84
2023-04-21T12:19:39.553Z,51.54
2023-04-21T12:22:10.320Z,54.08
2023-04-21T12:24:39.997Z,52.53
2023-04-21T12:27:09.633Z,48.61
2023-04-21T12:29:39.274Z,52.36
2023-04-21T12:32:08.678Z,52.44
2023-04-21T12:34:37.564Z,52.50
2023-04-21T12:37:06.351Z,53.93
2023-04-21T12:39:35.829Z,50.51
2023-04-21T12:42:04.510Z,48.87
2023-04-21T12:44:33.093Z,52.05
2023-04-21T12:47:03.338Z,55.60
2023-04-21T12:49:32.310Z,48.81
2023-04-21T12:52:01.336Z,50.13
2023-04-21T12:54:29.948Z,46.49
2023-04-21T12:56:59.108Z,47.35
2023-04-21T12:59:27.507Z,53.11
2023-04-21T13:01:56.201Z,54.22
2023-04-21T13:04:26.764Z,48.17
2023-04-21T13:06:57.976Z,49.81
2023-04-21T13:09:26.625Z,49.49
2023-04-21T13:11:56.348Z,51.18
2023-04-21T13:14:25.495Z,50.04
2023-04-21T13:16:55.086Z,48.02
2023-04-21T13:19:25.705Z,47.70
2023-04-21T13:21:54.684Z,50.33
2023-04-21T13:24:23.688Z,44.78
2023-04-21T13:26:52.283Z,52.62
2023-04-21T13:29:20.842Z,48.21
2023-04-21T13:31:49.131Z,47.05
2023-04-21T13:34:17.871Z,43.66
2023-04-21T13:36:48.527Z,49.49
2023-04-21T13:39:17.384Z,45.83
2023-04-21T13:41:45.772Z,45.70
2023-04-21T13:44:14.329Z,43.01
2023-04-21T13:46:43.104Z,45.61
2023-04-21T13:49:12.384Z,49.68
2023-04-21T13:51:41.214Z,49.83
2023-04-21T13:54:11.423Z,47.48
2023-04-21T13:56:40.325Z,44.70
2023-04-21T13:59:10.975Z,43.08
2023-04-21T14:01:39.927Z,42.47
2023-04-21T14:04:08.863Z,42.76
2023-04-21T14:06:37.732Z,43.58
2023-04-21T14:09:06.635Z,42.62
2023-04-21T14:11:36.319Z,42.95
2023-04-21T14:16:36.374Z,45.57
2023-04-21T14:19:04.772Z,45.18
2023-04-21T14:21:33.554Z,40.80
2023-04-21T14:24:01.852Z,40.31
2023-04-21T14:26:30.579Z,41.17
2023-04-21T14:29:01.539Z,37.75
2023-04-21T14:31:30.332Z,39.14
2023-04-21T14:33:59.028Z,37.68
2023-04-21T14:36:27.974Z,39.61
2023-04-21T14:38:56.732Z,41.28
2023-04-21T14:41:25.340Z,41.17
2023-04-21T14:43:56.513Z,40.90
2023-04-21T14:46:29.134Z,39.91
2023-04-21T14:48:58.125Z,37.35
2023-04-21T14:51:26.392Z,38.47
2023-04-21T14:53:55.096Z,40.80
2023-04-21T14:56:23.758Z,40.85
2023-04-21T14:58:52.371Z,42.31
2023-04-21T15:01:23.112Z,41.63
2023-04-21T15:03:57.671Z,40.81
2023-04-21T15:06:28.004Z,38.55
2023-04-21T15:08:57.124Z,41.29
2023-04-21T15:11:26.395Z,40.94
2023-04-21T15:13:55.138Z,39.28
2023-04-21T15:16:23.770Z,37.49
2023-04-21T15:18:55.303Z,39.58
2023-04-21T15:21:24.017Z,38.35
2023-04-21T15:23:52.717Z,36.13
2023-04-21T15:26:21.783Z,38.20
2023-04-21T15:28:50.442Z,40.06
2023-04-21T15:31:19.697Z,42.71
2023-04-21T15:33:48.499Z,39.75
2023-04-21T15:36:18.530Z,41.00
2023-04-21T15:38:47.155Z,38.69
2023-04-21T15:41:17.534Z,41.56
2023-04-21T15:43:46.380Z,41.08
2023-04-21T15:46:15.016Z,41.82
2023-04-21T15:48:44.402Z,42.14
2023-04-21T15:51:14.474Z,41.61
2023-04-21T15:53:47.781Z,45.67
2023-04-21T15:56:16.734Z,45.47
2023-04-21T15:58:45.327Z,46.77
2023-04-21T16:01:14.011Z,43.74
2023-04-21T16:03:42.943Z,43.27
2023-04-21T16:06:11.860Z,41.40
2023-04-21T16:08:40.956Z,46.33
2023-04-21T16:11:11.036Z,46.29
2023-04-21T16:13:39.704Z,48.61
2023-04-21T16:16:09.272Z,46.38
2023-04-21T16:18:38.191Z,47.71
2023-04-21T16:21:07.208Z,44.54
2023-04-21T16:23:36.157Z,47.01
2023-04-21T16:26:06.532Z,49.45
2023-04-21T16:28:37.141Z,49.41
2023-04-21T16:31:06.203Z,49.71
2023-04-21T16:33:34.961Z,52.06
2023-04-21T16:36:03.795Z,51.02
2023-04-21T16:38:32.513Z,51.82
2023-04-21T16:41:01.171Z,50.91
2023-04-21T16:43:29.881Z,52.89
2023-04-21T16:46:00.345Z,53.87
2023-04-21T16:48:29.077Z,51.11
2023-04-21T16:50:58.363Z,52.76
2023-04-21T16:53:27.706Z,53.05
2023-04-21T16:55:56.292Z,53.21
2023-04-21T16:58:26.186Z,53.81
2023-04-21T17:00:54.965Z,51.93
2023-04-21T17:03:26.435Z,53.51
2023-04-21T17:05:55.572Z,55.59
2023-04-21T17:08:24.201Z,54.75
2023-04-21T17:10:52.830Z,53.99
2023-04-21T17:13:21.599Z,55.52
2023-04-21T17:15:50.721Z,55.73
2023-04-21T17:18:19.452Z,60.32
2023-04-21T17:20:49.521Z,58.03
2023-04-21T17:23:18.109Z,57.70
2023-04-21T17:25:46.913Z,56.65
2023-04-21T17:28:15.369Z,56.45
2023-04-21T17:30:44.104Z,56.93
2023-04-21T17:33:17.026Z,59.45
2023-04-21T17:36:02.381Z,60.78
2023-04-21T17:38:33.046Z,59.76
2023-04-21T17:41:02.990Z,62.14
2023-04-21T17:43:31.383Z,63.18
2023-04-21T17:46:00.153Z,65.21
2023-04-21T17:48:28.928Z,68.11
2023-04-21T17:50:57.503Z,71.01
2023-04-21T17:53:25.841Z,73.34
2023-04-21T17:55:56.582Z,75.14
2023-04-21T17:58:26.522Z,76.28
2023-04-21T18:00:55.465Z,75.04
2023-04-21T18:03:24.208Z,76.26
2023-04-21T18:05:53.403Z,78.53
2023-04-21T18:08:22.356Z,78.72
2023-04-21T18:10:51.462Z,80.61
2023-04-21T18:13:21.419Z,79.57
2023-04-21T18:15:50.257Z,83.22
2023-04-21T18:18:18.981Z,84.46
2023-04-21T18:20:47.329Z,85.51
2023-04-21T18:23:15.941Z,86.12
2023-04-21T18:25:44.526Z,88.04
2023-04-21T18:28:13.343Z,87.56
2023-04-21T18:30:45.644Z,87.94
2023-04-21T18:33:14.474Z,87.42
2023-04-21T18:35:43.711Z,85.77
2023-04-21T18:38:13.479Z,84.56
2023-04-21T18:40:42.200Z,86.50
2023-04-21T18:43:11.091Z,87.36
2023-04-21T18:45:40.120Z,85.98
2023-04-21T18:48:10.097Z,87.48
2023-04-21T18:50:40.892Z,88.18
2023-04-21T18:53:09.970Z,87.76
2023-04-21T18:55:38.654Z,88.38
2023-04-21T18:58:07.338Z,89.54
2023-04-21T19:00:39.315Z,90.13
2023-04-21T19:03:09.509Z,89.58
2023-04-21T19:05:40.590Z,89.85
2023-04-21T19:08:10.796Z,89.65
2023-04-21T19:10:40.342Z,92.35
2023-04-21T19:13:08.992Z,92.05
2023-04-21T19:15:38.141Z,93.04
2023-04-21T19:18:09.222Z,93.42
2023-04-21T19:20:39.232Z,93.99
2023-04-21T19:23:08.095Z,89.78
2023-04-21T19:25:37.922Z,87.29
2023-04-21T19:28:07.648Z,85.75
2023-04-21T19:30:36.490Z,86.94
2023-04-21T19:33:07.711Z,86.37
2023-04-21T19:35:37.878Z,87.98
2023-04-21T19:38:06.845Z,86.82
2023-04-21T19:40:35.457Z,87.28
2023-04-21T19:43:04.635Z,89.21
2023-04-21T19:45:34.079Z,89.82
2023-04-21T19:48:02.717Z,89.62
2023-04-21T19:50:31.619Z,91.77
2023-04-21T19:53:01.569Z,91.25
2023-04-21T19:55:30.659Z,90.87
2023-04-21T19:57:59.285Z,90.46
2023-04-21T20:00:27.984Z,90.94
2023-04-21T20:02:56.944Z,91.07
2023-04-21T20:05:25.604Z,89.96
2023-04-21T20:07:54.201Z,89.04
2023-04-21T20:10:24.247Z,88.48
2023-04-21T20:12:52.915Z,87.88
2023-04-21T20:15:22.104Z,88.53
2023-04-21T20:17:50.385Z,91.28
2023-04-21T20:20:20.252Z,91.56
2023-04-21T20:22:48.934Z,92.66
2023-04-21T20:25:17.614Z,92.50
2023-04-21T20:27:47.875Z,91.13
2023-04-21T20:30:16.529Z,89.00
2023-04-21T20:32:45.557Z,89.19
2023-04-21T20:35:16.997Z,88.93
2023-04-21T20:37:46.098Z,88.44
2023-04-21T20:40:15.717Z,89.62
2023-04-21T20:42:44.998Z,91.72
2023-04-21T20:45:17.353Z,91.41
2023-04-21T20:47:45.998Z,93.62
2023-04-21T20:50:14.685Z,94.30
2023-04-21T20:52:43.643Z,96.21
2023-04-21T20:55:12.466Z,97.08
2023-04-21T20:57:41.452Z,98.88
2023-04-21T21:00:12.313Z,97.34
2023-04-21T21:02:42.426Z,98.41
2023-04-21T21:05:11.443Z,92.56
2023-04-21T21:07:40.153Z,88.07
2023-04-21T21:10:11.308Z,90.64
2023-04-21T21:12:39.552Z,92.92
2023-04-21T21:15:09.158Z,94.27
2023-04-21T21:17:37.799Z,97.46
2023-04-21T21:20:09.183Z,98.26
2023-04-21T21:22:37.782Z,99.89
2023-04-21T21:25:06.950Z,100.00
2023-04-21T21:27:35.616Z,100.00
2023-04-21T21:30:04.770Z,100.00
2023-04-21T21:32:33.767Z,100.00
2023-04-21T21:35:02.389Z,100.00
2023-04-21T21:37:32.671Z,100.00
2023-04-21T21:40:02.079Z,100.00
2023-04-21T21:42:30.642Z,100.00
2023-04-21T21:44:59.206Z,100.00
2023-04-21T21:47:28.225Z,100.00
2023-04-21T21:49:58.833Z,100.00
2023-04-21T21:52:28.627Z,100.00
2023-04-21T21:54:58.554Z,100.00
2023-04-21T21:57:27.930Z,100.00
2023-04-21T21:59:56.329Z,100.00
2023-04-21T22:02:25.011Z,100.00
2023-04-21T22:04:55.648Z,100.00
2023-04-21T22:07:25.045Z,100.00
2023-04-21T22:09:53.729Z,100.00
2023-04-21T22:12:24.056Z,100.00
2023-04-21T22:14:52.926Z,100.00
2023-04-21T22:17:22.637Z,100.00
2023-04-21T22:19:51.688Z,100.00
2023-04-21T22:22:20.396Z,100.00
2023-04-21T22:24:49.005Z,100.00
2023-04-21T22:27:17.594Z,100.00
2023-04-21T22:29:47.277Z,99.83
2023-04-21T22:32:15.956Z,98.55
2023-04-21T22:34:44.864Z,96.79
2023-04-21T22:37:14.206Z,97.51
2023-04-21T22:39:42.873Z,97.26
2023-04-21T22:42:11.459Z,95.98
2023-04-21T22:44:40.093Z,95.62
2023-04-21T22:47:10.752Z,96.76
2023-04-21T22:49:39.656Z,97.21
2023-04-21T22:52:08.704Z,97.67
2023-04-21T22:54:37.274Z,97.87
2023-04-21T22:57:06.693Z,99.42
2023-04-21T22:59:35.463Z,99.06
2023-04-21T23:02:05.398Z,99.22
2023-04-21T23:04:36.357Z,100.00
2023-04-21T23:07:05.140Z,100.00
2023-04-21T23:09:33.761Z,100.00
2023-04-21T23:12:03.552Z,100.00
2023-04-21T23:14:32.544Z,100.00
2023-04-21T23:17:01.308Z,100.00
2023-04-21T23:19:30.116Z,100.00
2023-04-21T23:22:00.211Z,100.00
2023-04-21T23:24:29.080Z,100.00
2023-04-21T23:26:57.937Z,100.00
2023-04-21T23:29:26.583Z,100.00
2023-04-21T23:31:55.353Z,100.00
2023-04-21T23:34:24.355Z,100.00
2023-04-21T23:36:52.891Z,100.00
2023-04-21T23:39:22.785Z,100.00
2023-04-21T23:41:51.374Z,100.00
2023-04-21T23:44:20.028Z,100.00
2023-04-21T23:46:48.622Z,100.00
2023-04-21T23:49:17.211Z,100.00
2023-04-21T23:51:46.009Z,100.00
2023-04-21T23:54:14.648Z,100.00
2023-04-21T23:56:44.569Z,100.00
2023-04-21T23:59:13.171Z,100.00
